Wetterdaten: Samstag, 17.09.2011
Datum Zeit Temp. I. Temp. A. Boden 5 cm Feuchte A. Sonne Luftdruck Regen Wind Sonnenschein
17.09.2011 00:01 22,2 C 14,3 C 15,4 C 83 % 0 % 1011 hPa 0,0 l/m 0,0 km/h (0 Bft) 0 min
17.09.2011 00:04 22,2 C 14,3 C 15,2 C 83 % 0 % 1011 hPa 0,0 l/m 0,0 km/h (0 Bft) 0 min
17.09.2011 00:07 22,2 C 14,3 C 15,4 C 83 % 0 % 1011 hPa 0,0 l/m 0,0 km/h (0 Bft) 0 min
17.09.2011 00:10 22,2 C 14,2 C 15,5 C 83 % 0 % 1011 hPa 0,0 l/m 0,0 km/h (0 Bft) 0 min
17.09.2011 00:13 22,2 C 14,3 C 15,5 C 83 % 0 % 1011 hPa 0,0 l/m 0,0 km/h (0 Bft) 0 min
17.09.2011 00:17 22,2 C 14,2 C 15,5 C 83 % 0 % 1011 hPa 0,0 l/m 0,0 km/h (0 Bft) 0 min
17.09.2011 00:20 22,2 C 14,2 C 15,4 C 83 % 0 % 1011 hPa 0,0 l/m 0,0 km/h (0 Bft) 0 min
17.09.2011 00:23 22,2 C 14,2 C 15,4 C 83 % 0 % 1011 hPa 0,0 l/m 0,0 km/h (0 Bft) 0 min
17.09.2011 00:26 22,2 C 14,2 C 15,4 C 84 % 0 % 1011 hPa 0,0 l/m 0,0 km/h (0 Bft) 0 min
17.09.2011 00:29 22,2 C 14,2 C 15,4 C 84 % 0 % 1011 hPa 0,0 l/m 0,0 km/h (0 Bft) 0 min
17.09.2011 00:32 22,2 C 14,1 C 15,3 C 84 % 0 % 1011 hPa 0,0 l/m 0,0 km/h (0 Bft) 0 min
17.09.2011 00:35 22,2 C 14,1 C 15,2 C 84 % 0 % 1011 hPa 0,0 l/m 0,0 km/h (0 Bft) 0 min
17.09.2011 00:38 22,2 C 14,1 C 15,2 C 84 % 0 % 1011 hPa 0,0 l/m 0,0 km/h (0 Bft) 0 min
17.09.2011 00:41 22,2 C 14,1 C 15,3 C 84 % 0 % 1011 hPa 0,0 l/m 0,0 km/h (0 Bft) 0 min
17.09.2011 00:44 22,2 C 14,1 C 15,0 C 84 % 0 % 1011 hPa 0,0 l/m 0,0 km/h (0 Bft) 0 min
17.09.2011 00:47 22,2 C 14,0 C 14,8 C 84 % 0 % 1011 hPa 0,0 l/m 0,0 km/h (0 Bft) 0 min
17.09.2011 00:50 22,2 C 14,0 C 15,0 C 84 % 0 % 1011 hPa 0,0 l/m 0,0 km/h (0 Bft) 0 min
17.09.2011 00:53 22,2 C 14,0 C 15,0 C 84 % 0 % 1011 hPa 0,0 l/m 0,0 km/h (0 Bft) 0 min
17.09.2011 00:56 22,2 C 14,0 C 15,1 C 84 % 0 % 1011 hPa 0,0 l/m 0,0 km/h (0 Bft) 0 min
17.09.2011 00:59 22,2 C 13,9 C 15,1 C 84 % 0 % 1011 hPa 0,0 l/m 0,0 km/h (0 Bft) 0 min
17.09.2011 01:02 22,2 C 13,9 C 15,2 C 84 % 0 % 1011 hPa 0,0 l/m 0,0 km/h (0 Bft) 0 min
17.09.2011 01:05 22,2 C 13,9 C 15,1 C 84 % 0 % 1011 hPa 0,0 l/m 0,0 km/h (0 Bft) 0 min
17.09.2011 01:08 22,2 C 13,9 C 15,2 C 85 % 0 % 1011 hPa 0,0 l/m 0,0 km/h (0 Bft) 0 min
17.09.2011 01:11 22,2 C 13,9 C 15,4 C 85 % 0 % 1011 hPa 0,0 l/m 0,0 km/h (0 Bft) 0 min
17.09.2011 01:14 22,2 C 13,9 C 15,4 C 85 % 0 % 1011 hPa 0,0 l/m 0,0 km/h (0 Bft) 0 min
17.09.2011 01:17 22,2 C 14,0 C 15,4 C 85 % 0 % 1011 hPa 0,0 l/m 0,0 km/h (0 Bft) 0 min
17.09.2011 01:20 22,2 C 14,0 C 15,2 C 85 % 0 % 1011 hPa 0,0 l/m 0,0 km/h (0 Bft) 0 min
17.09.2011 01:23 22,2 C 13,9 C 15,1 C 85 % 0 % 1011 hPa 0,0 l/m 0,0 km/h (0 Bft) 0 min
17.09.2011 01:26 22,2 C 13,9 C 15,0 C 85 % 0 % 1011 hPa 0,0 l/m 0,0 km/h (0 Bft) 0 min
17.09.2011 01:29 22,2 C 13,9 C 15,0 C 85 % 0 % 1011 hPa 0,0 l/m 0,0 km/h (0 Bft) 0 min
17.09.2011 01:32 22,2 C 13,8 C 15,0 C 84 % 0 % 1011 hPa 0,0 l/m 0,0 km/h (0 Bft) 0 min
17.09.2011 01:35 22,2 C 13,6 C 14,7 C 85 % 0 % 1011 hPa 0,0 l/m 2,9 km/h (1 Bft) 0 min
17.09.2011 01:38 22,2 C 13,5 C 14,6 C 86 % 0 % 1011 hPa 0,0 l/m 0,3 km/h (0 Bft) 0 min
17.09.2011 01:41 22,2 C 13,5 C 14,6 C 86 % 0 % 1011 hPa 0,0 l/m 1,6 km/h (1 Bft) 0 min
17.09.2011 01:44 22,2 C 13,4 C 14,6 C 87 % 0 % 1011 hPa 0,0 l/m 0,1 km/h (0 Bft) 0 min
17.09.2011 01:47 22,2 C 13,4 C 15,0 C 87 % 0 % 1011 hPa 0,0 l/m 0,0 km/h (0 Bft) 0 min
17.09.2011 01:50 22,2 C 13,5 C 15,1 C 87 % 0 % 1011 hPa 0,0 l/m 0,0 km/h (0 Bft) 0 min
17.09.2011 01:53 22,2 C 13,6 C 15,2 C 87 % 0 % 1011 hPa 0,0 l/m 0,0 km/h (0 Bft) 0 min
17.09.2011 01:56 22,2 C 13,6 C 15,3 C 88 % 0 % 1011 hPa 0,0 l/m 0,0 km/h (0 Bft) 0 min
17.09.2011 01:59 22,2 C 13,6 C 15,3 C 88 % 0 % 1011 hPa 0,0 l/m 0,0 km/h (0 Bft) 0 min
17.09.2011 02:02 22,2 C 13,6 C 15,3 C 88 % 0 % 1011 hPa 0,0 l/m 0,0 km/h (0 Bft) 0 min
17.09.2011 02:05 22,2 C 13,6 C 15,4 C 88 % 0 % 1011 hPa 0,0 l/m 0,0 km/h (0 Bft) 0 min
17.09.2011 02:08 22,2 C 13,7 C 15,3 C 88 % 0 % 1011 hPa 0,0 l/m 0,0 km/h (0 Bft) 0 min
17.09.2011 02:11 22,2 C 13,6 C 15,3 C 88 % 0 % 1011 hPa 0,0 l/m 0,0 km/h (0 Bft) 0 min
17.09.2011 02:14 22,2 C 13,7 C 15,3 C 88 % 0 % 1011 hPa 0,0 l/m 0,0 km/h (0 Bft) 0 min
17.09.2011 02:17 22,2 C 13,7 C 15,4 C 88 % 0 % 1011 hPa 0,0 l/m 0,0 km/h (0 Bft) 0 min
17.09.2011 02:20 22,2 C 13,7 C 15,4 C 88 % 0 % 1011 hPa 0,0 l/m 0,0 km/h (0 Bft) 0 min
17.09.2011 02:23 22,2 C 13,7 C 15,4 C 87 % 0 % 1011 hPa 0,0 l/m 0,0 km/h (0 Bft) 0 min
17.09.2011 02:26 22,2 C 13,7 C 15,4 C 87 % 0 % 1011 hPa 0,0 l/m 0,0 km/h (0 Bft) 0 min
17.09.2011 02:29 22,2 C 13,7 C 15,4 C 87 % 0 % 1011 hPa 0,0 l/m 0,0 km/h (0 Bft) 0 min
17.09.2011 02:32 22,2 C 13,8 C 15,4 C 87 % 0 % 1011 hPa 0,0 l/m 0,0 km/h (0 Bft) 0 min
17.09.2011 02:35 22,2 C 13,7 C 15,4 C 88 % 0 % 1011 hPa 0,0 l/m 0,0 km/h (0 Bft) 0 min
17.09.2011 02:38 22,2 C 13,8 C 15,3 C 87 % 0 % 1011 hPa 0,0 l/m 0,0 km/h (0 Bft) 0 min
17.09.2011 02:41 22,2 C 13,8 C 15,1 C 87 % 0 % 1011 hPa 0,0 l/m 0,0 km/h (0 Bft) 0 min
17.09.2011 02:44 22,2 C 13,8 C 15,2 C 87 % 0 % 1011 hPa 0,0 l/m 0,0 km/h (0 Bft) 0 min
17.09.2011 02:47 22,2 C 13,8 C 15,1 C 87 % 0 % 1011 hPa 0,0 l/m 0,0 km/h (0 Bft) 0 min
17.09.2011 02:50 22,2 C 13,8 C 15,3 C 87 % 0 % 1011 hPa 0,0 l/m 0,0 km/h (0 Bft) 0 min
17.09.2011 02:53 22,2 C 13,8 C 15,3 C 88 % 0 % 1011 hPa 0,0 l/m 0,0 km/h (0 Bft) 0 min
17.09.2011 02:56 22,2 C 13,7 C 15,3 C 88 % 0 % 1011 hPa 0,0 l/m 0,0 km/h (0 Bft) 0 min
17.09.2011 02:59 22,2 C 13,7 C 15,4 C 88 % 0 % 1011 hPa 0,0 l/m 0,0 km/h (0 Bft) 0 min
17.09.2011 03:02 22,2 C 13,8 C 15,4 C 88 % 0 % 1011 hPa 0,0 l/m 0,0 km/h (0 Bft) 0 min
17.09.2011 03:05 22,2 C 13,8 C 15,2 C 87 % 0 % 1011 hPa 0,0 l/m 0,0 km/h (0 Bft) 0 min
17.09.2011 03:08 22,2 C 13,8 C 15,3 C 87 % 0 % 1012 hPa 0,0 l/m 0,0 km/h (0 Bft) 0 min
17.09.2011 03:11 22,2 C 13,8 C 15,4 C 87 % 0 % 1012 hPa 0,0 l/m 0,0 km/h (0 Bft) 0 min
17.09.2011 03:14 22,2 C 13,8 C 15,4 C 87 % 0 % 1012 hPa 0,0 l/m 0,0 km/h (0 Bft) 0 min
17.09.2011 03:17 22,2 C 13,8 C 15,2 C 87 % 0 % 1012 hPa 0,0 l/m 0,0 km/h (0 Bft) 0 min
17.09.2011 03:20 22,2 C 13,8 C 15,2 C 87 % 0 % 1012 hPa 0,0 l/m 0,0 km/h (0 Bft) 0 min
17.09.2011 03:23 22,2 C 13,8 C 15,2 C 87 % 0 % 1012 hPa 0,0 l/m 0,0 km/h (0 Bft) 0 min
17.09.2011 03:26 22,2 C 13,8 C 15,3 C 87 % 0 % 1012 hPa 0,0 l/m 0,0 km/h (0 Bft) 0 min
17.09.2011 03:29 22,2 C 13,8 C 15,2 C 87 % 0 % 1012 hPa 0,0 l/m 0,0 km/h (0 Bft) 0 min
17.09.2011 03:32 22,2 C 13,8 C 15,2 C 87 % 0 % 1012 hPa 0,0 l/m 0,0 km/h (0 Bft) 0 min
17.09.2011 03:35 22,2 C 13,8 C 15,2 C 87 % 0 % 1012 hPa 0,0 l/m 0,0 km/h (0 Bft) 0 min
17.09.2011 03:38 22,2 C 13,8 C 15,0 C 87 % 0 % 1012 hPa 0,0 l/m 0,0 km/h (0 Bft) 0 min
17.09.2011 03:41 22,2 C 13,8 C 15,0 C 87 % 0 % 1012 hPa 0,0 l/m 0,0 km/h (0 Bft) 0 min
17.09.2011 03:44 22,2 C 13,8 C 14,9 C 87 % 0 % 1012 hPa 0,0 l/m 0,0 km/h (0 Bft) 0 min
17.09.2011 03:47 22,2 C 13,7 C 14,8 C 87 % 0 % 1012 hPa 0,0 l/m 0,0 km/h (0 Bft) 0 min
17.09.2011 03:50 22,2 C 13,6 C 14,9 C 87 % 0 % 1012 hPa 0,0 l/m 0,0 km/h (0 Bft) 0 min
17.09.2011 03:53 22,2 C 13,6 C 14,9 C 87 % 0 % 1011 hPa 0,0 l/m 3,3 km/h (1 Bft) 0 min
17.09.2011 03:56 22,2 C 13,6 C 15,1 C 86 % 0 % 1011 hPa 0,0 l/m 3,3 km/h (1 Bft) 0 min
17.09.2011 03:59 22,2 C 13,7 C 14,9 C 85 % 0 % 1011 hPa 0,0 l/m 1,0 km/h (0 Bft) 0 min
17.09.2011 04:02 22,2 C 13,6 C 14,6 C 86 % 0 % 1011 hPa 0,0 l/m 1,0 km/h (0 Bft) 0 min
17.09.2011 04:05 22,2 C 13,5 C 14,6 C 86 % 0 % 1011 hPa 0,0 l/m 6,5 km/h (2 Bft) 0 min
17.09.2011 04:08 22,2 C 13,6 C 14,6 C 86 % 0 % 1011 hPa 0,0 l/m 5,1 km/h (1 Bft) 0 min
17.09.2011 04:11 22,2 C 13,5 C 14,9 C 87 % 0 % 1011 hPa 0,0 l/m 0,1 km/h (0 Bft) 0 min
17.09.2011 04:14 22,2 C 13,5 C 15,0 C 87 % 0 % 1011 hPa 0,0 l/m 0,1 km/h (0 Bft) 0 min
17.09.2011 04:17 22,2 C 13,5 C 15,0 C 87 % 0 % 1011 hPa 0,0 l/m 1,5 km/h (1 Bft) 0 min
17.09.2011 04:20 22,2 C 13,4 C 15,0 C 88 % 0 % 1012 hPa 0,0 l/m 0,3 km/h (0 Bft) 0 min
17.09.2011 04:23 22,2 C 13,4 C 14,9 C 89 % 0 % 1012 hPa 0,0 l/m 0,7 km/h (0 Bft) 0 min
17.09.2011 04:26 22,2 C 13,4 C 14,9 C 89 % 0 % 1012 hPa 0,0 l/m 0,7 km/h (0 Bft) 0 min
17.09.2011 04:29 22,2 C 13,3 C 14,9 C 89 % 0 % 1012 hPa 0,0 l/m 0,4 km/h (0 Bft) 0 min
17.09.2011 04:32 22,2 C 13,4 C 15,0 C 89 % 0 % 1012 hPa 0,0 l/m 1,2 km/h (1 Bft) 0 min
17.09.2011 04:35 22,2 C 13,4 C 15,0 C 90 % 0 % 1012 hPa 0,0 l/m 0,0 km/h (0 Bft) 0 min
17.09.2011 04:38 22,2 C 13,4 C 15,1 C 90 % 0 % 1012 hPa 0,0 l/m 0,0 km/h (0 Bft) 0 min
17.09.2011 04:41 22,2 C 13,4 C 15,1 C 89 % 0 % 1012 hPa 0,0 l/m 0,0 km/h (0 Bft) 0 min
17.09.2011 04:44 22,2 C 13,4 C 15,0 C 89 % 0 % 1012 hPa 0,0 l/m 0,0 km/h (0 Bft) 0 min
17.09.2011 04:47 22,2 C 13,4 C 15,0 C 89 % 0 % 1012 hPa 0,0 l/m 0,0 km/h (0 Bft) 0 min
17.09.2011 04:50 22,2 C 13,4 C 14,9 C 88 % 0 % 1012 hPa 0,0 l/m 0,0 km/h (0 Bft) 0 min
17.09.2011 04:53 22,2 C 13,4 C 14,8 C 89 % 0 % 1012 hPa 0,0 l/m 0,0 km/h (0 Bft) 0 min
17.09.2011 04:56 22,2 C 13,4 C 14,9 C 89 % 0 % 1012 hPa 0,0 l/m 0,3 km/h (0 Bft) 0 min
17.09.2011 04:59 22,2 C 13,4 C 15,0 C 89 % 0 % 1012 hPa 0,0 l/m 0,1 km/h (0 Bft) 0 min
17.09.2011 05:02 22,2 C 13,4 C 15,0 C 89 % 0 % 1012 hPa 0,0 l/m 0,0 km/h (0 Bft) 0 min
17.09.2011 05:05 22,2 C 13,4 C 14,8 C 89 % 0 % 1012 hPa 0,0 l/m 0,0 km/h (0 Bft) 0 min
17.09.2011 05:08 22,2 C 13,3 C 14,8 C 88 % 0 % 1012 hPa 0,0 l/m 1,0 km/h (0 Bft) 0 min
17.09.2011 05:11 22,2 C 13,3 C 15,0 C 89 % 0 % 1012 hPa 0,0 l/m 0,0 km/h (0 Bft) 0 min
17.09.2011 05:14 22,2 C 13,3 C 14,9 C 89 % 0 % 1012 hPa 0,0 l/m 0,0 km/h (0 Bft) 0 min
17.09.2011 05:17 22,2 C 13,3 C 14,9 C 89 % 0 % 1012 hPa 0,0 l/m 0,0 km/h (0 Bft) 0 min
17.09.2011 05:20 22,2 C 13,3 C 14,9 C 90 % 0 % 1012 hPa 0,0 l/m 0,0 km/h (0 Bft) 0 min
17.09.2011 05:23 22,2 C 13,2 C 14,8 C 90 % 0 % 1012 hPa 0,0 l/m 1,6 km/h (1 Bft) 0 min
17.09.2011 05:26 22,2 C 13,2 C 14,8 C 89 % 0 % 1012 hPa 0,0 l/m 0,3 km/h (0 Bft) 0 min
17.09.2011 05:29 22,2 C 13,2 C 14,9 C 90 % 0 % 1012 hPa 0,0 l/m 0,0 km/h (0 Bft) 0 min
17.09.2011 05:32 22,2 C 13,2 C 15,0 C 90 % 0 % 1012 hPa 0,0 l/m 0,0 km/h (0 Bft) 0 min
17.09.2011 05:35 22,2 C 13,2 C 15,0 C 90 % 0 % 1012 hPa 0,0 l/m 0,0 km/h (0 Bft) 0 min
17.09.2011 05:38 22,2 C 13,1 C 14,4 C 90 % 0 % 1012 hPa 0,3 l/m 5,7 km/h (1 Bft) 0 min
17.09.2011 05:41 22,2 C 13,0 C 14,5 C 91 % 0 % 1012 hPa 0,0 l/m 4,7 km/h (1 Bft) 0 min
17.09.2011 05:44 22,2 C 13,0 C 14,5 C 91 % 0 % 1012 hPa 0,0 l/m 8,6 km/h (2 Bft) 0 min
17.09.2011 05:47 22,2 C 12,9 C 14,3 C 92 % 0 % 1012 hPa 0,0 l/m 8,2 km/h (2 Bft) 0 min
17.09.2011 05:50 22,2 C 12,9 C 14,3 C 93 % 0 % 1012 hPa 0,0 l/m 5,3 km/h (1 Bft) 0 min
17.09.2011 05:53 22,2 C 12,8 C 14,3 C 93 % 0 % 1012 hPa 0,0 l/m 5,3 km/h (1 Bft) 0 min
17.09.2011 05:56 22,2 C 12,8 C 14,3 C 93 % 0 % 1012 hPa 0,3 l/m 5,4 km/h (1 Bft) 0 min
17.09.2011 05:59 22,2 C 12,8 C 14,3 C 94 % 0 % 1012 hPa 0,0 l/m 5,4 km/h (1 Bft) 0 min
17.09.2011 06:02 22,2 C 12,7 C 14,3 C 94 % 0 % 1012 hPa 0,0 l/m 4,4 km/h (1 Bft) 0 min
17.09.2011 06:05 22,2 C 12,7 C 14,3 C 94 % 0 % 1012 hPa 0,0 l/m 3,5 km/h (1 Bft) 0 min
17.09.2011 06:08 22,2 C 12,7 C 14,2 C 95 % 0 % 1012 hPa 0,0 l/m 4,8 km/h (1 Bft) 0 min
17.09.2011 06:11 22,2 C 12,7 C 14,3 C 95 % 0 % 1012 hPa 0,0 l/m 5,0 km/h (1 Bft) 0 min
17.09.2011 06:14 22,2 C 12,7 C 14,3 C 95 % 0 % 1012 hPa 0,0 l/m 0,6 km/h (0 Bft) 0 min
17.09.2011 06:17 22,2 C 12,7 C 14,4 C 95 % 0 % 1012 hPa 0,0 l/m 4,0 km/h (1 Bft) 0 min
17.09.2011 06:20 22,2 C 12,7 C 14,6 C 95 % 0 % 1012 hPa 0,0 l/m 0,4 km/h (0 Bft) 0 min
17.09.2011 06:23 22,2 C 12,7 C 14,4 C 95 % 0 % 1012 hPa 0,0 l/m 3,9 km/h (1 Bft) 0 min
17.09.2011 06:26 22,2 C 12,7 C 14,6 C 95 % 0 % 1012 hPa 0,0 l/m 3,9 km/h (1 Bft) 0 min
17.09.2011 06:29 22,2 C 12,7 C 14,7 C 95 % 0 % 1012 hPa 0,0 l/m 0,0 km/h (0 Bft) 0 min
17.09.2011 06:32 22,2 C 12,7 C 14,5 C 95 % 0 % 1012 hPa 0,0 l/m 0,6 km/h (0 Bft) 0 min
17.09.2011 06:35 22,1 C 12,7 C 14,3 C 95 % 0 % 1012 hPa 0,0 l/m 1,0 km/h (0 Bft) 0 min
17.09.2011 06:38 22,1 C 12,7 C 14,3 C 95 % 0 % 1012 hPa 0,0 l/m 5,0 km/h (1 Bft) 0 min
17.09.2011 06:41 22,1 C 12,7 C 14,2 C 95 % 0 % 1012 hPa 0,0 l/m 1,0 km/h (0 Bft) 0 min
17.09.2011 06:44 22,2 C 12,7 C 14,4 C 95 % 0 % 1011 hPa 0,0 l/m 3,6 km/h (1 Bft) 0 min
17.09.2011 06:47 22,1 C 12,7 C 14,7 C 95 % 0 % 1011 hPa 0,0 l/m 0,2 km/h (0 Bft) 0 min
17.09.2011 06:50 22,2 C 12,8 C 14,7 C 96 % 0 % 1012 hPa 0,0 l/m 4,5 km/h (1 Bft) 0 min
17.09.2011 06:53 22,2 C 12,8 C 14,7 C 96 % 0 % 1012 hPa 0,0 l/m 4,6 km/h (1 Bft) 0 min
17.09.2011 06:56 22,1 C 12,8 C 14,8 C 96 % 0 % 1012 hPa 0,0 l/m 0,0 km/h (0 Bft) 0 min
17.09.2011 06:59 22,2 C 12,8 C 14,8 C 96 % 1 % 1012 hPa 0,0 l/m 0,0 km/h (0 Bft) 0 min
17.09.2011 07:02 22,1 C 12,8 C 14,8 C 96 % 1 % 1012 hPa 0,0 l/m 0,0 km/h (0 Bft) 0 min
17.09.2011 07:05 22,2 C 12,9 C 15,0 C 96 % 2 % 1012 hPa 0,0 l/m 0,0 km/h (0 Bft) 0 min
17.09.2011 07:08 22,1 C 12,9 C 14,9 C 96 % 2 % 1012 hPa 0,0 l/m 0,0 km/h (0 Bft) 0 min
17.09.2011 07:11 22,1 C 12,9 C 14,8 C 95 % 2 % 1012 hPa 0,0 l/m 0,0 km/h (0 Bft) 0 min
17.09.2011 07:14 22,1 C 12,9 C 15,0 C 95 % 3 % 1012 hPa 0,0 l/m 0,0 km/h (0 Bft) 0 min
17.09.2011 07:17 22,1 C 12,9 C 15,0 C 95 % 3 % 1012 hPa 0,0 l/m 0,0 km/h (0 Bft) 0 min
17.09.2011 07:20 22,1 C 13,0 C 15,1 C 95 % 4 % 1012 hPa 0,0 l/m 0,0 km/h (0 Bft) 0 min
17.09.2011 07:23 22,1 C 13,0 C 15,1 C 95 % 5 % 1012 hPa 0,0 l/m 0,0 km/h (0 Bft) 0 min
17.09.2011 07:26 22,1 C 13,0 C 15,1 C 95 % 5 % 1012 hPa 0,0 l/m 0,1 km/h (0 Bft) 0 min
17.09.2011 07:29 22,1 C 13,0 C 15,1 C 95 % 6 % 1012 hPa 0,0 l/m 0,4 km/h (0 Bft) 0 min
17.09.2011 07:32 22,2 C 13,0 C 14,9 C 95 % 6 % 1012 hPa 0,0 l/m 0,0 km/h (0 Bft) 0 min
17.09.2011 07:35 22,2 C 13,0 C 15,0 C 95 % 6 % 1012 hPa 0,0 l/m 0,0 km/h (0 Bft) 0 min
17.09.2011 07:38 22,2 C 13,1 C 15,1 C 95 % 7 % 1012 hPa 0,0 l/m 0,2 km/h (0 Bft) 0 min
17.09.2011 07:41 22,2 C 13,1 C 15,1 C 95 % 7 % 1012 hPa 0,0 l/m 0,0 km/h (0 Bft) 0 min
17.09.2011 07:44 22,2 C 13,2 C 15,1 C 95 % 8 % 1012 hPa 0,0 l/m 0,0 km/h (0 Bft) 0 min
17.09.2011 07:47 22,2 C 13,2 C 15,3 C 95 % 8 % 1012 hPa 0,0 l/m 0,0 km/h (0 Bft) 0 min
17.09.2011 07:50 22,2 C 13,3 C 15,3 C 95 % 8 % 1012 hPa 0,0 l/m 0,0 km/h (0 Bft) 0 min
17.09.2011 07:53 22,2 C 13,3 C 15,4 C 95 % 9 % 1012 hPa 0,0 l/m 0,0 km/h (0 Bft) 0 min
17.09.2011 07:56 22,1 C 13,3 C 15,4 C 95 % 9 % 1012 hPa 0,0 l/m 0,0 km/h (0 Bft) 0 min
17.09.2011 07:59 22,2 C 13,3 C 15,2 C 94 % 10 % 1012 hPa 0,0 l/m 3,4 km/h (1 Bft) 0 min
17.09.2011 08:02 22,2 C 13,3 C 15,1 C 94 % 10 % 1012 hPa 0,0 l/m 3,7 km/h (1 Bft) 0 min
17.09.2011 08:05 22,2 C 13,3 C 15,1 C 94 % 10 % 1012 hPa 0,0 l/m 2,5 km/h (1 Bft) 0 min
17.09.2011 08:08 22,2 C 13,4 C 15,1 C 94 % 10 % 1012 hPa 0,0 l/m 3,6 km/h (1 Bft) 0 min
17.09.2011 08:11 22,2 C 13,4 C 15,2 C 94 % 11 % 1012 hPa 0,0 l/m 5,3 km/h (1 Bft) 0 min
17.09.2011 08:14 22,2 C 13,5 C 15,4 C 95 % 11 % 1012 hPa 0,0 l/m 5,9 km/h (2 Bft) 0 min
17.09.2011 08:17 22,2 C 13,5 C 15,4 C 95 % 12 % 1012 hPa 0,0 l/m 9,4 km/h (2 Bft) 0 min
17.09.2011 08:20 22,2 C 13,5 C 15,4 C 95 % 12 % 1012 hPa 0,0 l/m 5,1 km/h (1 Bft) 0 min
17.09.2011 08:23 22,2 C 13,5 C 15,5 C 95 % 12 % 1012 hPa 0,0 l/m 3,6 km/h (1 Bft) 0 min
17.09.2011 08:26 22,2 C 13,6 C 15,6 C 95 % 13 % 1012 hPa 0,0 l/m 4,9 km/h (1 Bft) 0 min
17.09.2011 08:29 22,2 C 13,7 C 15,7 C 94 % 14 % 1012 hPa 0,0 l/m 5,5 km/h (1 Bft) 0 min
17.09.2011 08:32 22,1 C 13,8 C 15,7 C 94 % 14 % 1012 hPa 0,0 l/m 5,0 km/h (1 Bft) 0 min
17.09.2011 08:35 22,1 C 13,9 C 15,8 C 94 % 12 % 1012 hPa 0,0 l/m 5,2 km/h (1 Bft) 0 min
17.09.2011 08:38 22,1 C 13,9 C 16,0 C 94 % 12 % 1012 hPa 0,0 l/m 5,9 km/h (2 Bft) 0 min
17.09.2011 08:41 22,1 C 13,9 C 16,2 C 94 % 13 % 1012 hPa 0,0 l/m 1,1 km/h (1 Bft) 0 min
17.09.2011 08:44 22,2 C 13,9 C 15,9 C 94 % 13 % 1012 hPa 0,0 l/m 5,7 km/h (1 Bft) 0 min
17.09.2011 08:47 22,2 C 13,9 C 15,7 C 94 % 14 % 1012 hPa 0,0 l/m 7,5 km/h (2 Bft) 0 min
17.09.2011 08:50 22,1 C 14,0 C 15,6 C 94 % 15 % 1012 hPa 0,0 l/m 7,5 km/h (2 Bft) 0 min
17.09.2011 08:53 22,1 C 14,0 C 15,7 C 94 % 18 % 1012 hPa 0,0 l/m 9,0 km/h (2 Bft) 0 min
17.09.2011 08:56 22,1 C 14,1 C 16,6 C 94 % 22 % 1012 hPa 0,0 l/m 9,3 km/h (2 Bft) 0 min
17.09.2011 08:59 22,1 C 14,3 C 17,2 C 94 % 22 % 1012 hPa 0,0 l/m 9,8 km/h (2 Bft) 0 min
17.09.2011 09:02 22,2 C 14,4 C 17,3 C 94 % 19 % 1012 hPa 0,0 l/m 8,6 km/h (2 Bft) 0 min
17.09.2011 09:05 22,2 C 14,5 C 17,3 C 94 % 19 % 1012 hPa 0,0 l/m 11,3 km/h (2 Bft) 0 min
17.09.2011 09:08 22,1 C 14,6 C 17,5 C 93 % 20 % 1012 hPa 0,0 l/m 8,1 km/h (2 Bft) 0 min
17.09.2011 09:11 22,2 C 14,6 C 17,8 C 93 % 23 % 1012 hPa 0,0 l/m 10,3 km/h (2 Bft) 0 min
17.09.2011 09:14 22,2 C 14,8 C 18,5 C 93 % 21 % 1012 hPa 0,0 l/m 6,8 km/h (2 Bft) 0 min
17.09.2011 09:17 22,2 C 14,9 C 19,2 C 93 % 25 % 1012 hPa 0,0 l/m 6,0 km/h (2 Bft) 0 min
17.09.2011 09:20 22,2 C 15,0 C 18,0 C 92 % 25 % 1012 hPa 0,0 l/m 7,6 km/h (2 Bft) 0 min
17.09.2011 09:23 22,2 C 15,0 C 17,3 C 92 % 20 % 1012 hPa 0,0 l/m 9,4 km/h (2 Bft) 0 min
17.09.2011 09:26 22,2 C 15,0 C 17,1 C 92 % 24 % 1012 hPa 0,0 l/m 7,1 km/h (2 Bft) 0 min
17.09.2011 09:29 22,2 C 15,0 C 17,3 C 92 % 26 % 1012 hPa 0,0 l/m 9,2 km/h (2 Bft) 0 min
17.09.2011 09:32 22,2 C 15,2 C 17,8 C 91 % 25 % 1012 hPa 0,0 l/m 5,4 km/h (1 Bft) 0 min
17.09.2011 09:35 22,3 C 15,3 C 17,9 C 91 % 25 % 1012 hPa 0,0 l/m 5,4 km/h (1 Bft) 0 min
17.09.2011 09:38 22,3 C 15,5 C 17,9 C 91 % 33 % 1012 hPa 0,0 l/m 7,4 km/h (2 Bft) 0 min
17.09.2011 09:41 22,4 C 15,7 C 19,8 C 91 % 38 % 1012 hPa 0,0 l/m 8,1 km/h (2 Bft) 0 min
17.09.2011 09:44 22,4 C 15,8 C 19,7 C 90 % 40 % 1012 hPa 0,0 l/m 6,6 km/h (2 Bft) 0 min
17.09.2011 09:47 22,4 C 15,8 C 21,1 C 90 % 41 % 1012 hPa 0,0 l/m 8,0 km/h (2 Bft) 0 min
17.09.2011 09:50 22,4 C 16,1 C 22,2 C 90 % 39 % 1012 hPa 0,0 l/m 7,1 km/h (2 Bft) 0 min
17.09.2011 09:53 22,5 C 16,3 C 22,8 C 90 % 39 % 1012 hPa 0,0 l/m 7,8 km/h (2 Bft) 0 min
17.09.2011 09:56 22,6 C 16,3 C 21,9 C 89 % 38 % 1012 hPa 0,0 l/m 7,6 km/h (2 Bft) 0 min
17.09.2011 09:59 22,6 C 16,4 C 21,9 C 89 % 33 % 1012 hPa 0,0 l/m 7,5 km/h (2 Bft) 0 min
17.09.2011 10:02 22,6 C 16,5 C 23,3 C 89 % 33 % 1012 hPa 0,0 l/m 5,7 km/h (1 Bft) 0 min
17.09.2011 10:05 22,6 C 16,6 C 20,7 C 88 % 19 % 1012 hPa 0,0 l/m 6,0 km/h (2 Bft) 0 min
17.09.2011 10:08 22,6 C 16,5 C 19,8 C 88 % 18 % 1012 hPa 0,0 l/m 1,8 km/h (1 Bft) 0 min
17.09.2011 10:11 22,6 C 16,4 C 19,1 C 89 % 17 % 1012 hPa 0,0 l/m 1,8 km/h (1 Bft) 0 min
17.09.2011 10:14 22,6 C 16,4 C 19,5 C 89 % 17 % 1012 hPa 0,0 l/m 6,3 km/h (2 Bft) 0 min
17.09.2011 10:17 22,7 C 16,5 C 19,5 C 89 % 22 % 1012 hPa 0,0 l/m 9,6 km/h (2 Bft) 0 min
17.09.2011 10:20 22,7 C 16,5 C 19,7 C 89 % 25 % 1012 hPa 0,0 l/m 6,7 km/h (2 Bft) 0 min
17.09.2011 10:23 22,7 C 16,6 C 19,7 C 88 % 24 % 1012 hPa 0,0 l/m 5,9 km/h (2 Bft) 0 min
17.09.2011 10:26 22,6 C 16,6 C 19,2 C 88 % 25 % 1012 hPa 0,0 l/m 5,9 km/h (2 Bft) 0 min
17.09.2011 10:29 22,2 C 16,7 C 19,3 C 88 % 27 % 1012 hPa 0,0 l/m 4,3 km/h (1 Bft) 0 min
17.09.2011 10:32 22,1 C 16,8 C 19,7 C 88 % 27 % 1012 hPa 0,0 l/m 4,9 km/h (1 Bft) 0 min
17.09.2011 10:35 22,2 C 17,1 C 20,4 C 88 % 58 % 1012 hPa 0,0 l/m 5,6 km/h (1 Bft) 3 min
17.09.2011 10:38 22,2 C 17,2 C 20,1 C 87 % 58 % 1012 hPa 0,0 l/m 5,2 km/h (1 Bft) 3 min
17.09.2011 10:41 22,2 C 17,2 C 19,7 C 86 % 35 % 1012 hPa 0,0 l/m 8,3 km/h (2 Bft) 0 min
17.09.2011 10:44 22,2 C 17,2 C 19,4 C 86 % 30 % 1012 hPa 0,0 l/m 9,0 km/h (2 Bft) 0 min
17.09.2011 10:47 22,2 C 17,3 C 19,4 C 86 % 27 % 1012 hPa 0,0 l/m 9,8 km/h (2 Bft) 0 min
17.09.2011 10:50 22,2 C 17,3 C 19,2 C 87 % 25 % 1012 hPa 0,0 l/m 4,2 km/h (1 Bft) 0 min
17.09.2011 10:53 22,2 C 17,3 C 19,0 C 87 % 23 % 1012 hPa 0,0 l/m 0,8 km/h (0 Bft) 0 min
17.09.2011 10:56 22,2 C 17,4 C 19,3 C 87 % 23 % 1012 hPa 0,0 l/m 3,7 km/h (1 Bft) 0 min
17.09.2011 10:59 22,2 C 17,4 C 19,6 C 87 % 27 % 1011 hPa 0,0 l/m 5,0 km/h (1 Bft) 0 min
17.09.2011 11:02 22,2 C 17,5 C 19,7 C 86 % 27 % 1011 hPa 0,0 l/m 4,6 km/h (1 Bft) 0 min
17.09.2011 11:05 22,2 C 17,5 C 19,7 C 86 % 27 % 1011 hPa 0,0 l/m 6,3 km/h (2 Bft) 0 min
17.09.2011 11:08 22,2 C 17,6 C 19,7 C 86 % 44 % 1011 hPa 0,0 l/m 4,5 km/h (1 Bft) 0 min
17.09.2011 11:11 22,1 C 17,8 C 20,3 C 86 % 41 % 1011 hPa 0,0 l/m 9,0 km/h (2 Bft) 0 min
17.09.2011 11:14 22,1 C 18,0 C 20,8 C 86 % 41 % 1011 hPa 0,0 l/m 3,7 km/h (1 Bft) 0 min
17.09.2011 11:17 22,1 C 18,2 C 20,6 C 86 % 53 % 1011 hPa 0,0 l/m 4,6 km/h (1 Bft) 0 min
17.09.2011 11:20 22,1 C 18,3 C 20,5 C 85 % 53 % 1011 hPa 0,0 l/m 4,6 km/h (1 Bft) 0 min
17.09.2011 11:23 22,2 C 18,5 C 20,7 C 85 % 53 % 1011 hPa 0,0 l/m 0,4 km/h (0 Bft) 3 min
17.09.2011 11:26 22,2 C 18,7 C 20,3 C 85 % 53 % 1011 hPa 0,0 l/m 2,9 km/h (1 Bft) 0 min
17.09.2011 11:29 22,2 C 18,7 C 20,4 C 85 % 54 % 1011 hPa 0,0 l/m 5,5 km/h (1 Bft) 3 min
17.09.2011 11:32 22,2 C 18,9 C 21,2 C 84 % 54 % 1011 hPa 0,0 l/m 7,8 km/h (2 Bft) 3 min
17.09.2011 11:35 22,2 C 19,1 C 20,7 C 83 % 56 % 1011 hPa 0,0 l/m 5,0 km/h (1 Bft) 3 min
17.09.2011 11:38 22,2 C 19,2 C 20,5 C 83 % 56 % 1011 hPa 0,0 l/m 3,0 km/h (1 Bft) 3 min
17.09.2011 11:41 22,2 C 19,4 C 20,5 C 82 % 56 % 1011 hPa 0,0 l/m 0,3 km/h (0 Bft) 3 min
17.09.2011 11:44 22,2 C 19,3 C 20,7 C 82 % 56 % 1011 hPa 0,0 l/m 3,9 km/h (1 Bft) 3 min
17.09.2011 11:47 22,2 C 19,4 C 20,7 C 81 % 57 % 1011 hPa 0,0 l/m 3,3 km/h (1 Bft) 3 min
17.09.2011 11:50 22,3 C 19,5 C 20,5 C 82 % 52 % 1011 hPa 0,0 l/m 0,9 km/h (0 Bft) 0 min
17.09.2011 11:53 22,3 C 19,7 C 21,1 C 82 % 52 % 1011 hPa 0,0 l/m 6,0 km/h (2 Bft) 0 min
17.09.2011 11:56 22,3 C 19,9 C 21,3 C 81 % 59 % 1011 hPa 0,0 l/m 5,3 km/h (1 Bft) 3 min
17.09.2011 11:59 22,3 C 19,9 C 21,3 C 81 % 59 % 1011 hPa 0,0 l/m 5,1 km/h (1 Bft) 3 min
17.09.2011 12:02 22,3 C 20,3 C 21,2 C 80 % 59 % 1011 hPa 0,0 l/m 12,1 km/h (2 Bft) 3 min
17.09.2011 12:05 22,4 C 20,4 C 21,3 C 78 % 59 % 1011 hPa 0,0 l/m 11,3 km/h (2 Bft) 3 min
17.09.2011 12:08 22,5 C 20,4 C 21,8 C 78 % 58 % 1011 hPa 0,0 l/m 8,2 km/h (2 Bft) 3 min
17.09.2011 12:11 22,6 C 20,6 C 21,7 C 77 % 57 % 1011 hPa 0,0 l/m 7,8 km/h (2 Bft) 3 min
17.09.2011 12:14 22,6 C 20,6 C 21,6 C 77 % 57 % 1011 hPa 0,0 l/m 5,6 km/h (1 Bft) 3 min
17.09.2011 12:17 22,6 C 20,8 C 21,7 C 77 % 57 % 1011 hPa 0,0 l/m 6,1 km/h (2 Bft) 3 min
17.09.2011 12:20 22,5 C 20,9 C 21,6 C 76 % 57 % 1011 hPa 0,0 l/m 6,8 km/h (2 Bft) 3 min
17.09.2011 12:23 22,6 C 21,0 C 21,7 C 76 % 58 % 1011 hPa 0,0 l/m 8,9 km/h (2 Bft) 3 min
17.09.2011 12:26 22,5 C 21,1 C 22,0 C 77 % 58 % 1011 hPa 0,0 l/m 8,9 km/h (2 Bft) 3 min
17.09.2011 12:29 22,5 C 21,2 C 22,6 C 75 % 58 % 1011 hPa 0,0 l/m 0,3 km/h (0 Bft) 3 min
17.09.2011 12:32 22,5 C 21,3 C 22,6 C 75 % 58 % 1011 hPa 0,0 l/m 7,4 km/h (2 Bft) 3 min
17.09.2011 12:35 22,5 C 21,4 C 22,5 C 73 % 59 % 1011 hPa 0,0 l/m 5,9 km/h (2 Bft) 3 min
17.09.2011 12:38 22,5 C 21,4 C 22,6 C 72 % 58 % 1011 hPa 0,0 l/m 5,9 km/h (2 Bft) 3 min
17.09.2011 12:41 22,6 C 21,4 C 22,2 C 70 % 59 % 1011 hPa 0,0 l/m 7,0 km/h (2 Bft) 3 min
17.09.2011 12:44 22,6 C 21,4 C 22,0 C 71 % 59 % 1011 hPa 0,0 l/m 4,8 km/h (1 Bft) 3 min
17.09.2011 12:47 22,6 C 21,5 C 21,8 C 70 % 59 % 1010 hPa 0,0 l/m 10,0 km/h (2 Bft) 3 min
17.09.2011 12:50 22,6 C 21,5 C 21,6 C 70 % 60 % 1010 hPa 0,0 l/m 4,2 km/h (1 Bft) 3 min
17.09.2011 12:53 22,6 C 21,7 C 21,4 C 70 % 59 % 1010 hPa 0,0 l/m 7,5 km/h (2 Bft) 3 min
17.09.2011 12:56 22,6 C 21,8 C 21,1 C 71 % 60 % 1010 hPa 0,0 l/m 3,6 km/h (1 Bft) 3 min
17.09.2011 12:59 22,6 C 21,8 C 20,9 C 69 % 61 % 1010 hPa 0,0 l/m 8,7 km/h (2 Bft) 3 min
17.09.2011 13:02 22,6 C 21,9 C 20,9 C 70 % 60 % 1010 hPa 0,0 l/m 5,4 km/h (1 Bft) 3 min
17.09.2011 13:05 22,6 C 22,0 C 20,8 C 68 % 60 % 1010 hPa 0,0 l/m 6,3 km/h (2 Bft) 3 min
17.09.2011 13:08 22,6 C 22,0 C 20,7 C 66 % 60 % 1010 hPa 0,0 l/m 11,1 km/h (2 Bft) 3 min
17.09.2011 13:11 22,6 C 22,0 C 20,8 C 67 % 60 % 1010 hPa 0,0 l/m 5,7 km/h (1 Bft) 3 min
17.09.2011 13:14 22,6 C 22,2 C 20,6 C 67 % 61 % 1010 hPa 0,0 l/m 5,1 km/h (1 Bft) 3 min
17.09.2011 13:17 22,5 C 22,2 C 20,7 C 66 % 61 % 1010 hPa 0,0 l/m 5,4 km/h (1 Bft) 3 min
17.09.2011 13:20 22,6 C 22,3 C 20,6 C 67 % 61 % 1010 hPa 0,0 l/m 5,0 km/h (1 Bft) 3 min
17.09.2011 13:23 22,6 C 22,4 C 20,5 C 67 % 61 % 1010 hPa 0,0 l/m 4,2 km/h (1 Bft) 3 min
17.09.2011 13:26 22,6 C 22,4 C 20,6 C 65 % 62 % 1010 hPa 0,0 l/m 5,2 km/h (1 Bft) 3 min
17.09.2011 13:29 22,6 C 22,5 C 20,8 C 67 % 62 % 1010 hPa 0,0 l/m 2,4 km/h (1 Bft) 3 min
17.09.2011 13:32 22,6 C 22,6 C 21,0 C 66 % 63 % 1010 hPa 0,0 l/m 1,7 km/h (1 Bft) 3 min
17.09.2011 13:35 22,7 C 22,6 C 21,2 C 66 % 65 % 1010 hPa 0,0 l/m 6,8 km/h (2 Bft) 3 min
17.09.2011 13:38 22,6 C 22,7 C 21,4 C 66 % 67 % 1010 hPa 0,0 l/m 1,2 km/h (1 Bft) 3 min
17.09.2011 13:41 22,7 C 22,8 C 22,0 C 65 % 69 % 1010 hPa 0,0 l/m 7,9 km/h (2 Bft) 3 min
17.09.2011 13:44 22,7 C 22,8 C 22,0 C 64 % 69 % 1010 hPa 0,0 l/m 7,8 km/h (2 Bft) 3 min
17.09.2011 13:47 22,7 C 22,9 C 21,9 C 65 % 67 % 1010 hPa 0,0 l/m 2,4 km/h (1 Bft) 3 min
17.09.2011 13:50 22,7 C 23,0 C 21,7 C 65 % 65 % 1010 hPa 0,0 l/m 6,5 km/h (2 Bft) 3 min
17.09.2011 13:53 22,7 C 23,0 C 21,6 C 64 % 64 % 1010 hPa 0,0 l/m 8,7 km/h (2 Bft) 3 min
17.09.2011 13:56 22,7 C 23,1 C 21,7 C 64 % 65 % 1010 hPa 0,0 l/m 7,6 km/h (2 Bft) 3 min
17.09.2011 13:59 22,8 C 23,2 C 21,5 C 64 % 64 % 1010 hPa 0,0 l/m 5,9 km/h (2 Bft) 3 min
17.09.2011 14:02 22,8 C 23,2 C 21,5 C 64 % 64 % 1010 hPa 0,0 l/m 5,9 km/h (2 Bft) 3 min
17.09.2011 14:05 22,8 C 23,3 C 21,4 C 64 % 63 % 1010 hPa 0,0 l/m 11,1 km/h (2 Bft) 3 min
17.09.2011 14:08 22,8 C 23,3 C 21,2 C 63 % 63 % 1009 hPa 0,0 l/m 13,0 km/h (3 Bft) 3 min
17.09.2011 14:11 22,8 C 23,3 C 21,1 C 61 % 63 % 1009 hPa 0,0 l/m 12,9 km/h (3 Bft) 3 min
17.09.2011 14:14 22,8 C 23,2 C 21,0 C 61 % 63 % 1009 hPa 0,0 l/m 11,6 km/h (2 Bft) 3 min
17.09.2011 14:17 22,8 C 23,3 C 20,8 C 62 % 64 % 1009 hPa 0,0 l/m 13,1 km/h (3 Bft) 3 min
17.09.2011 14:20 22,8 C 23,4 C 21,0 C 61 % 64 % 1009 hPa 0,0 l/m 13,3 km/h (3 Bft) 3 min
17.09.2011 14:23 22,9 C 23,4 C 20,9 C 61 % 64 % 1009 hPa 0,0 l/m 11,6 km/h (2 Bft) 3 min
17.09.2011 14:26 22,9 C 23,4 C 20,9 C 62 % 64 % 1009 hPa 0,0 l/m 15,3 km/h (3 Bft) 3 min
17.09.2011 14:29 23,0 C 23,5 C 20,7 C 61 % 65 % 1009 hPa 0,0 l/m 6,9 km/h (2 Bft) 3 min
17.09.2011 14:32 23,0 C 23,5 C 20,7 C 62 % 64 % 1009 hPa 0,0 l/m 8,7 km/h (2 Bft) 3 min
17.09.2011 14:35 23,0 C 23,6 C 20,7 C 62 % 65 % 1009 hPa 0,0 l/m 8,5 km/h (2 Bft) 3 min
17.09.2011 14:38 23,0 C 23,6 C 20,7 C 61 % 64 % 1009 hPa 0,0 l/m 8,0 km/h (2 Bft) 3 min
17.09.2011 14:41 23,0 C 23,6 C 20,7 C 61 % 63 % 1009 hPa 0,0 l/m 10,9 km/h (2 Bft) 3 min
17.09.2011 14:44 23,0 C 23,6 C 20,7 C 61 % 61 % 1009 hPa 0,0 l/m 8,1 km/h (2 Bft) 3 min
17.09.2011 14:47 23,1 C 23,6 C 20,8 C 60 % 62 % 1009 hPa 0,0 l/m 16,5 km/h (3 Bft) 3 min
17.09.2011 14:50 23,1 C 23,5 C 20,8 C 60 % 62 % 1009 hPa 0,0 l/m 14,5 km/h (3 Bft) 3 min
17.09.2011 14:53 23,0 C 23,6 C 20,9 C 60 % 61 % 1009 hPa 0,0 l/m 17,2 km/h (3 Bft) 3 min
17.09.2011 14:56 23,0 C 23,6 C 20,9 C 59 % 60 % 1009 hPa 0,0 l/m 13,3 km/h (3 Bft) 3 min
17.09.2011 14:59 23,1 C 23,7 C 21,2 C 60 % 59 % 1009 hPa 0,0 l/m 5,6 km/h (1 Bft) 3 min
17.09.2011 15:02 23,2 C 23,7 C 21,4 C 59 % 60 % 1009 hPa 0,0 l/m 8,3 km/h (2 Bft) 3 min
17.09.2011 15:05 23,2 C 23,7 C 21,3 C 59 % 54 % 1009 hPa 0,0 l/m 4,3 km/h (1 Bft) 3 min
17.09.2011 15:08 23,3 C 23,7 C 21,3 C 59 % 56 % 1009 hPa 0,0 l/m 11,7 km/h (2 Bft) 3 min
17.09.2011 15:11 23,3 C 23,6 C 21,3 C 59 % 58 % 1009 hPa 0,0 l/m 11,0 km/h (2 Bft) 3 min
17.09.2011 15:14 23,3 C 23,7 C 21,3 C 60 % 58 % 1009 hPa 0,0 l/m 11,0 km/h (2 Bft) 3 min
17.09.2011 15:17 23,3 C 23,6 C 21,2 C 60 % 44 % 1008 hPa 0,0 l/m 12,6 km/h (3 Bft) 0 min
17.09.2011 15:20 23,3 C 23,6 C 21,3 C 60 % 44 % 1008 hPa 0,0 l/m 7,1 km/h (2 Bft) 0 min
17.09.2011 15:23 23,3 C 23,6 C 21,3 C 60 % 50 % 1008 hPa 0,0 l/m 14,4 km/h (3 Bft) 0 min
17.09.2011 15:26 23,2 C 23,6 C 21,2 C 60 % 50 % 1008 hPa 0,0 l/m 13,0 km/h (3 Bft) 0 min
17.09.2011 15:29 23,2 C 23,5 C 21,0 C 59 % 50 % 1008 hPa 0,0 l/m 7,9 km/h (2 Bft) 0 min
17.09.2011 15:32 23,2 C 23,3 C 20,9 C 61 % 24 % 1008 hPa 0,0 l/m 8,2 km/h (2 Bft) 0 min
17.09.2011 15:35 23,2 C 23,2 C 21,0 C 62 % 24 % 1008 hPa 0,0 l/m 8,3 km/h (2 Bft) 0 min
17.09.2011 15:38 23,2 C 23,2 C 21,1 C 62 % 44 % 1008 hPa 0,0 l/m 11,5 km/h (2 Bft) 0 min
17.09.2011 15:41 23,2 C 23,3 C 21,3 C 61 % 41 % 1008 hPa 0,0 l/m 11,3 km/h (2 Bft) 0 min
17.09.2011 15:44 23,2 C 23,3 C 21,3 C 61 % 39 % 1008 hPa 0,0 l/m 11,3 km/h (2 Bft) 0 min
17.09.2011 15:47 23,2 C 23,3 C 21,3 C 61 % 39 % 1008 hPa 0,0 l/m 12,1 km/h (2 Bft) 0 min
17.09.2011 15:50 23,2 C 23,3 C 21,5 C 62 % 43 % 1008 hPa 0,0 l/m 8,3 km/h (2 Bft) 0 min
17.09.2011 15:53 23,2 C 23,3 C 21,7 C 63 % 43 % 1008 hPa 0,0 l/m 13,5 km/h (3 Bft) 0 min
17.09.2011 15:56 23,2 C 23,4 C 21,7 C 63 % 41 % 1008 hPa 0,0 l/m 12,1 km/h (2 Bft) 0 min
17.09.2011 15:59 23,2 C 23,5 C 21,8 C 64 % 41 % 1008 hPa 0,0 l/m 12,0 km/h (2 Bft) 0 min
17.09.2011 16:02 23,2 C 23,5 C 21,9 C 63 % 38 % 1008 hPa 0,0 l/m 13,3 km/h (3 Bft) 0 min
17.09.2011 16:05 23,2 C 23,5 C 21,8 C 63 % 37 % 1008 hPa 0,0 l/m 13,3 km/h (3 Bft) 0 min
17.09.2011 16:08 23,2 C 23,4 C 21,7 C 63 % 37 % 1008 hPa 0,0 l/m 9,2 km/h (2 Bft) 0 min
17.09.2011 16:11 23,1 C 23,4 C 21,7 C 63 % 36 % 1008 hPa 0,0 l/m 15,1 km/h (3 Bft) 0 min
17.09.2011 16:14 23,1 C 23,4 C 21,7 C 64 % 36 % 1008 hPa 0,0 l/m 12,1 km/h (2 Bft) 0 min
17.09.2011 16:17 23,0 C 23,4 C 21,7 C 63 % 35 % 1008 hPa 0,0 l/m 9,6 km/h (2 Bft) 0 min
17.09.2011 16:20 23,0 C 23,3 C 21,7 C 63 % 34 % 1008 hPa 0,0 l/m 9,6 km/h (2 Bft) 0 min
17.09.2011 16:23 23,0 C 23,3 C 21,6 C 63 % 32 % 1008 hPa 0,0 l/m 8,6 km/h (2 Bft) 0 min
17.09.2011 16:26 23,0 C 23,2 C 21,6 C 63 % 34 % 1008 hPa 0,0 l/m 9,5 km/h (2 Bft) 0 min
17.09.2011 16:29 23,0 C 23,2 C 21,6 C 63 % 33 % 1008 hPa 0,0 l/m 11,1 km/h (2 Bft) 0 min
17.09.2011 16:32 23,0 C 23,2 C 21,7 C 63 % 33 % 1008 hPa 0,0 l/m 9,7 km/h (2 Bft) 0 min
17.09.2011 16:35 23,0 C 23,2 C 21,6 C 64 % 32 % 1008 hPa 0,0 l/m 8,0 km/h (2 Bft) 0 min
17.09.2011 16:38 23,0 C 23,2 C 21,6 C 63 % 32 % 1008 hPa 0,0 l/m 8,0 km/h (2 Bft) 0 min
17.09.2011 16:41 23,0 C 23,2 C 21,5 C 64 % 31 % 1008 hPa 0,0 l/m 10,5 km/h (2 Bft) 0 min
17.09.2011 16:44 23,0 C 23,2 C 21,6 C 64 % 31 % 1008 hPa 0,0 l/m 13,8 km/h (3 Bft) 0 min
17.09.2011 16:47 23,0 C 23,2 C 21,5 C 64 % 31 % 1008 hPa 0,0 l/m 13,2 km/h (3 Bft) 0 min
17.09.2011 16:50 23,0 C 23,1 C 21,5 C 65 % 30 % 1008 hPa 0,0 l/m 11,6 km/h (2 Bft) 0 min
17.09.2011 16:53 23,0 C 23,1 C 21,4 C 65 % 30 % 1008 hPa 0,0 l/m 11,6 km/h (2 Bft) 0 min
17.09.2011 16:56 23,0 C 23,1 C 21,3 C 64 % 27 % 1008 hPa 0,0 l/m 10,0 km/h (2 Bft) 0 min
17.09.2011 16:59 23,0 C 23,1 C 21,3 C 64 % 23 % 1008 hPa 0,0 l/m 10,1 km/h (2 Bft) 0 min
17.09.2011 17:02 23,0 C 23,0 C 21,2 C 64 % 21 % 1008 hPa 0,0 l/m 13,0 km/h (3 Bft) 0 min
17.09.2011 17:05 23,0 C 22,9 C 21,1 C 64 % 17 % 1008 hPa 0,0 l/m 8,4 km/h (2 Bft) 0 min
17.09.2011 17:08 23,0 C 22,9 C 21,1 C 64 % 17 % 1008 hPa 0,0 l/m 9,3 km/h (2 Bft) 0 min
17.09.2011 17:11 22,9 C 22,9 C 21,1 C 65 % 25 % 1007 hPa 0,0 l/m 9,2 km/h (2 Bft) 0 min
17.09.2011 17:14 22,9 C 22,9 C 21,2 C 65 % 27 % 1007 hPa 0,0 l/m 8,7 km/h (2 Bft) 0 min
17.09.2011 17:17 22,9 C 22,9 C 21,3 C 65 % 26 % 1007 hPa 0,0 l/m 8,9 km/h (2 Bft) 0 min
17.09.2011 17:20 22,9 C 22,9 C 21,2 C 65 % 22 % 1007 hPa 0,0 l/m 10,1 km/h (2 Bft) 0 min
17.09.2011 17:23 22,9 C 22,9 C 21,3 C 65 % 23 % 1007 hPa 0,0 l/m 5,0 km/h (1 Bft) 0 min
17.09.2011 17:26 22,9 C 22,8 C 21,2 C 65 % 22 % 1007 hPa 0,0 l/m 11,9 km/h (2 Bft) 0 min
17.09.2011 17:29 22,9 C 22,8 C 21,1 C 66 % 22 % 1007 hPa 0,0 l/m 9,1 km/h (2 Bft) 0 min
17.09.2011 17:32 22,9 C 22,8 C 21,1 C 66 % 21 % 1007 hPa 0,0 l/m 10,4 km/h (2 Bft) 0 min
17.09.2011 17:35 22,9 C 22,8 C 21,0 C 66 % 21 % 1007 hPa 0,0 l/m 11,3 km/h (2 Bft) 0 min
17.09.2011 17:38 22,9 C 22,7 C 20,9 C 66 % 20 % 1007 hPa 0,0 l/m 10,1 km/h (2 Bft) 0 min
17.09.2011 17:41 23,0 C 22,7 C 20,9 C 66 % 20 % 1007 hPa 0,0 l/m 7,0 km/h (2 Bft) 0 min
17.09.2011 17:44 22,9 C 22,6 C 20,8 C 66 % 19 % 1007 hPa 0,0 l/m 11,6 km/h (2 Bft) 0 min
17.09.2011 17:47 22,9 C 22,6 C 20,8 C 66 % 19 % 1007 hPa 0,0 l/m 10,8 km/h (2 Bft) 0 min
17.09.2011 17:50 22,9 C 22,6 C 20,8 C 67 % 18 % 1007 hPa 0,0 l/m 8,1 km/h (2 Bft) 0 min
17.09.2011 17:53 22,9 C 22,5 C 20,7 C 67 % 18 % 1007 hPa 0,0 l/m 10,0 km/h (2 Bft) 0 min
17.09.2011 17:56 22,9 C 22,5 C 20,6 C 67 % 16 % 1007 hPa 0,0 l/m 8,9 km/h (2 Bft) 0 min
17.09.2011 17:59 22,9 C 22,4 C 20,5 C 67 % 16 % 1007 hPa 0,0 l/m 14,1 km/h (3 Bft) 0 min
17.09.2011 18:02 22,8 C 22,4 C 20,5 C 67 % 15 % 1007 hPa 0,0 l/m 12,1 km/h (2 Bft) 0 min
17.09.2011 18:05 22,9 C 22,3 C 20,3 C 67 % 14 % 1007 hPa 0,0 l/m 16,1 km/h (3 Bft) 0 min
17.09.2011 18:08 22,9 C 22,2 C 20,3 C 67 % 14 % 1007 hPa 0,0 l/m 11,6 km/h (2 Bft) 0 min
17.09.2011 18:11 22,9 C 22,2 C 20,2 C 67 % 13 % 1007 hPa 0,0 l/m 14,8 km/h (3 Bft) 0 min
17.09.2011 18:14 22,9 C 22,1 C 20,2 C 67 % 13 % 1007 hPa 0,0 l/m 15,0 km/h (3 Bft) 0 min
17.09.2011 18:17 22,9 C 22,0 C 20,2 C 67 % 12 % 1007 hPa 0,0 l/m 19,8 km/h (3 Bft) 0 min
17.09.2011 18:20 22,9 C 22,0 C 19,9 C 66 % 6 % 1007 hPa 0,0 l/m 13,6 km/h (3 Bft) 0 min
17.09.2011 18:23 22,8 C 22,0 C 19,8 C 66 % 11 % 1007 hPa 0,0 l/m 11,4 km/h (2 Bft) 0 min
17.09.2011 18:26 22,8 C 21,9 C 19,8 C 67 % 5 % 1007 hPa 0,0 l/m 13,1 km/h (3 Bft) 0 min
17.09.2011 18:29 22,8 C 21,8 C 19,6 C 67 % 5 % 1007 hPa 0,0 l/m 11,9 km/h (2 Bft) 0 min
17.09.2011 18:32 22,8 C 21,8 C 19,5 C 67 % 5 % 1007 hPa 0,0 l/m 12,6 km/h (3 Bft) 0 min
17.09.2011 18:35 22,8 C 21,7 C 19,5 C 67 % 5 % 1007 hPa 0,0 l/m 11,5 km/h (2 Bft) 0 min
17.09.2011 18:38 22,7 C 21,6 C 19,5 C 68 % 7 % 1007 hPa 0,0 l/m 10,0 km/h (2 Bft) 0 min
17.09.2011 18:41 22,7 C 21,5 C 19,4 C 68 % 5 % 1007 hPa 0,0 l/m 7,8 km/h (2 Bft) 0 min
17.09.2011 18:44 22,6 C 21,4 C 19,3 C 69 % 6 % 1007 hPa 0,0 l/m 9,9 km/h (2 Bft) 0 min
17.09.2011 18:47 22,6 C 21,3 C 19,3 C 69 % 6 % 1007 hPa 0,0 l/m 13,4 km/h (3 Bft) 0 min
17.09.2011 18:50 22,7 C 21,2 C 19,3 C 70 % 5 % 1006 hPa 0,0 l/m 9,4 km/h (2 Bft) 0 min
17.09.2011 18:53 22,8 C 21,2 C 19,2 C 70 % 3 % 1006 hPa 0,0 l/m 8,6 km/h (2 Bft) 0 min
17.09.2011 18:56 22,8 C 21,0 C 19,1 C 70 % 2 % 1006 hPa 0,0 l/m 8,5 km/h (2 Bft) 0 min
17.09.2011 18:59 22,9 C 21,0 C 19,0 C 70 % 2 % 1006 hPa 0,0 l/m 6,6 km/h (2 Bft) 0 min
17.09.2011 19:02 22,9 C 20,9 C 19,0 C 71 % 2 % 1006 hPa 0,0 l/m 7,4 km/h (2 Bft) 0 min
17.09.2011 19:05 22,9 C 20,9 C 18,9 C 71 % 1 % 1006 hPa 0,0 l/m 5,7 km/h (1 Bft) 0 min
17.09.2011 19:08 22,9 C 20,8 C 18,8 C 71 % 1 % 1006 hPa 0,0 l/m 5,7 km/h (1 Bft) 0 min
17.09.2011 19:11 23,0 C 20,7 C 18,8 C 71 % 1 % 1006 hPa 0,0 l/m 5,5 km/h (1 Bft) 0 min
17.09.2011 19:14 23,0 C 20,7 C 18,7 C 71 % 1 % 1006 hPa 0,0 l/m 5,5 km/h (1 Bft) 0 min
17.09.2011 19:17 23,0 C 20,6 C 18,7 C 71 % 0 % 1006 hPa 0,0 l/m 5,5 km/h (1 Bft) 0 min
17.09.2011 19:20 23,0 C 20,6 C 18,6 C 71 % 0 % 1006 hPa 0,0 l/m 6,8 km/h (2 Bft) 0 min
17.09.2011 19:23 23,1 C 20,5 C 18,5 C 71 % 0 % 1006 hPa 0,0 l/m 6,2 km/h (2 Bft) 0 min
17.09.2011 19:26 23,1 C 20,5 C 18,4 C 71 % 0 % 1006 hPa 0,0 l/m 8,4 km/h (2 Bft) 0 min
17.09.2011 19:29 23,1 C 20,4 C 18,4 C 71 % 0 % 1006 hPa 0,0 l/m 8,4 km/h (2 Bft) 0 min
17.09.2011 19:32 23,1 C 20,3 C 18,5 C 72 % 0 % 1006 hPa 0,0 l/m 6,1 km/h (2 Bft) 0 min
17.09.2011 19:35 23,1 C 20,3 C 18,5 C 72 % 0 % 1006 hPa 0,0 l/m 5,4 km/h (1 Bft) 0 min
17.09.2011 19:38 23,0 C 20,2 C 18,4 C 72 % 0 % 1006 hPa 0,0 l/m 3,9 km/h (1 Bft) 0 min
17.09.2011 19:41 23,0 C 20,2 C 18,4 C 72 % 0 % 1006 hPa 0,0 l/m 4,2 km/h (1 Bft) 0 min
17.09.2011 19:44 23,0 C 20,1 C 18,3 C 72 % 0 % 1006 hPa 0,0 l/m 2,5 km/h (1 Bft) 0 min
17.09.2011 19:47 23,0 C 20,1 C 18,3 C 73 % 0 % 1006 hPa 0,0 l/m 3,5 km/h (1 Bft) 0 min
17.09.2011 19:50 23,0 C 20,0 C 18,2 C 73 % 0 % 1006 hPa 0,0 l/m 2,8 km/h (1 Bft) 0 min
17.09.2011 19:53 23,0 C 19,9 C 18,2 C 73 % 0 % 1006 hPa 0,0 l/m 1,4 km/h (1 Bft) 0 min
17.09.2011 19:56 23,0 C 19,8 C 18,1 C 73 % 0 % 1006 hPa 0,0 l/m 1,4 km/h (1 Bft) 0 min
17.09.2011 19:59 23,0 C 19,8 C 18,1 C 74 % 0 % 1006 hPa 0,0 l/m 4,6 km/h (1 Bft) 0 min
17.09.2011 20:02 22,9 C 19,8 C 18,1 C 74 % 0 % 1006 hPa 0,0 l/m 6,0 km/h (2 Bft) 0 min
17.09.2011 20:05 22,9 C 19,8 C 18,0 C 74 % 0 % 1006 hPa 0,0 l/m 6,4 km/h (2 Bft) 0 min
17.09.2011 20:08 22,9 C 19,7 C 17,9 C 74 % 0 % 1006 hPa 0,0 l/m 7,4 km/h (2 Bft) 0 min
17.09.2011 20:11 22,9 C 19,7 C 17,9 C 74 % 0 % 1006 hPa 0,0 l/m 7,9 km/h (2 Bft) 0 min
17.09.2011 20:14 22,9 C 19,8 C 17,9 C 74 % 0 % 1006 hPa 0,0 l/m 8,2 km/h (2 Bft) 0 min
17.09.2011 20:17 22,9 C 19,8 C 17,8 C 74 % 0 % 1006 hPa 0,0 l/m 8,5 km/h (2 Bft) 0 min
17.09.2011 20:20 22,9 C 19,8 C 17,8 C 74 % 0 % 1006 hPa 0,0 l/m 7,8 km/h (2 Bft) 0 min
17.09.2011 20:23 22,9 C 19,7 C 17,8 C 74 % 0 % 1006 hPa 0,0 l/m 9,9 km/h (2 Bft) 0 min
17.09.2011 20:26 22,9 C 19,7 C 17,8 C 75 % 0 % 1006 hPa 0,0 l/m 8,4 km/h (2 Bft) 0 min
17.09.2011 20:29 23,0 C 19,6 C 18,0 C 75 % 0 % 1006 hPa 0,0 l/m 6,1 km/h (2 Bft) 0 min
17.09.2011 20:32 23,0 C 19,6 C 17,9 C 75 % 0 % 1006 hPa 0,0 l/m 3,7 km/h (1 Bft) 0 min
17.09.2011 20:35 23,0 C 19,5 C 17,9 C 75 % 0 % 1006 hPa 0,0 l/m 1,9 km/h (1 Bft) 0 min
17.09.2011 20:38 23,0 C 19,5 C 17,9 C 75 % 0 % 1006 hPa 0,0 l/m 1,9 km/h (1 Bft) 0 min
17.09.2011 20:41 23,0 C 19,4 C 17,9 C 75 % 0 % 1006 hPa 0,0 l/m 1,6 km/h (1 Bft) 0 min
17.09.2011 20:44 23,0 C 19,3 C 17,9 C 76 % 0 % 1006 hPa 0,0 l/m 1,1 km/h (1 Bft) 0 min
17.09.2011 20:47 23,0 C 19,3 C 17,9 C 76 % 0 % 1006 hPa 0,0 l/m 0,5 km/h (0 Bft) 0 min
17.09.2011 20:50 23,0 C 19,3 C 17,8 C 76 % 0 % 1006 hPa 0,0 l/m 0,6 km/h (0 Bft) 0 min
17.09.2011 20:53 23,0 C 19,3 C 17,7 C 76 % 0 % 1006 hPa 0,0 l/m 0,6 km/h (0 Bft) 0 min
17.09.2011 20:56 23,0 C 19,2 C 17,7 C 76 % 0 % 1006 hPa 0,0 l/m 1,0 km/h (0 Bft) 0 min
17.09.2011 20:59 23,0 C 19,2 C 17,6 C 76 % 0 % 1006 hPa 0,0 l/m 1,0 km/h (0 Bft) 0 min
17.09.2011 21:02 23,1 C 19,1 C 17,7 C 76 % 0 % 1006 hPa 0,0 l/m 0,3 km/h (0 Bft) 0 min
17.09.2011 21:05 23,1 C 19,1 C 17,7 C 76 % 0 % 1006 hPa 0,0 l/m 5,7 km/h (1 Bft) 0 min
17.09.2011 21:08 23,1 C 19,1 C 17,6 C 76 % 0 % 1006 hPa 0,0 l/m 4,6 km/h (1 Bft) 0 min
17.09.2011 21:11 23,0 C 19,1 C 17,6 C 77 % 0 % 1006 hPa 0,0 l/m 2,0 km/h (1 Bft) 0 min
17.09.2011 21:14 23,1 C 19,1 C 17,6 C 77 % 0 % 1006 hPa 0,0 l/m 7,0 km/h (2 Bft) 0 min
17.09.2011 21:17 23,1 C 19,1 C 17,6 C 77 % 0 % 1006 hPa 0,0 l/m 5,7 km/h (1 Bft) 0 min
17.09.2011 21:20 23,1 C 19,1 C 17,6 C 77 % 0 % 1006 hPa 0,0 l/m 3,9 km/h (1 Bft) 0 min
17.09.2011 21:23 23,0 C 19,1 C 17,6 C 76 % 0 % 1006 hPa 0,0 l/m 3,9 km/h (1 Bft) 0 min
17.09.2011 21:26 23,0 C 19,0 C 17,6 C 77 % 0 % 1006 hPa 0,0 l/m 4,3 km/h (1 Bft) 0 min
17.09.2011 21:29 23,1 C 19,0 C 17,6 C 77 % 0 % 1006 hPa 0,0 l/m 3,7 km/h (1 Bft) 0 min
17.09.2011 21:32 23,1 C 18,9 C 17,6 C 77 % 0 % 1006 hPa 0,0 l/m 4,3 km/h (1 Bft) 0 min
17.09.2011 21:35 23,1 C 18,9 C 17,7 C 77 % 0 % 1006 hPa 0,0 l/m 3,2 km/h (1 Bft) 0 min
17.09.2011 21:38 23,1 C 18,9 C 17,8 C 77 % 0 % 1006 hPa 0,0 l/m 1,8 km/h (1 Bft) 0 min
17.09.2011 21:41 23,1 C 18,9 C 17,8 C 77 % 0 % 1006 hPa 0,0 l/m 4,7 km/h (1 Bft) 0 min
17.09.2011 21:44 23,1 C 18,8 C 17,6 C 78 % 0 % 1006 hPa 0,0 l/m 5,7 km/h (1 Bft) 0 min
17.09.2011 21:47 23,1 C 18,8 C 17,7 C 78 % 0 % 1006 hPa 0,0 l/m 5,7 km/h (1 Bft) 0 min
17.09.2011 21:50 23,1 C 18,8 C 17,6 C 78 % 0 % 1006 hPa 0,0 l/m 4,2 km/h (1 Bft) 0 min
17.09.2011 21:53 23,1 C 18,7 C 17,6 C 78 % 0 % 1006 hPa 0,0 l/m 3,0 km/h (1 Bft) 0 min
17.09.2011 21:56 23,1 C 18,7 C 17,6 C 78 % 0 % 1006 hPa 0,0 l/m 3,5 km/h (1 Bft) 0 min
17.09.2011 21:59 23,1 C 18,7 C 17,6 C 78 % 0 % 1006 hPa 0,0 l/m 4,8 km/h (1 Bft) 0 min
17.09.2011 22:02 23,1 C 18,7 C 17,7 C 78 % 0 % 1006 hPa 0,0 l/m 4,5 km/h (1 Bft) 0 min
17.09.2011 22:05 23,1 C 18,7 C 17,8 C 78 % 0 % 1006 hPa 0,0 l/m 3,7 km/h (1 Bft) 0 min
17.09.2011 22:08 23,1 C 18,6 C 17,7 C 78 % 0 % 1006 hPa 0,0 l/m 1,6 km/h (1 Bft) 0 min
17.09.2011 22:11 23,0 C 18,6 C 17,6 C 78 % 0 % 1006 hPa 0,0 l/m 4,1 km/h (1 Bft) 0 min
17.09.2011 22:14 23,0 C 18,6 C 17,6 C 78 % 0 % 1006 hPa 0,0 l/m 3,1 km/h (1 Bft) 0 min
17.09.2011 22:17 23,0 C 18,6 C 17,7 C 78 % 0 % 1006 hPa 0,0 l/m 6,1 km/h (2 Bft) 0 min
17.09.2011 22:20 23,1 C 18,6 C 17,6 C 78 % 0 % 1006 hPa 0,0 l/m 3,7 km/h (1 Bft) 0 min
17.09.2011 22:23 23,0 C 18,7 C 17,6 C 78 % 0 % 1006 hPa 0,0 l/m 1,8 km/h (1 Bft) 0 min
17.09.2011 22:26 23,0 C 18,7 C 17,7 C 78 % 0 % 1006 hPa 0,0 l/m 1,8 km/h (1 Bft) 0 min
17.09.2011 22:29 23,0 C 18,6 C 17,7 C 78 % 0 % 1006 hPa 0,0 l/m 0,0 km/h (0 Bft) 0 min
17.09.2011 22:32 23,0 C 18,6 C 17,8 C 78 % 0 % 1006 hPa 0,0 l/m 0,6 km/h (0 Bft) 0 min
17.09.2011 22:35 23,0 C 18,6 C 17,8 C 78 % 0 % 1006 hPa 0,0 l/m 0,2 km/h (0 Bft) 0 min
17.09.2011 22:38 23,0 C 18,6 C 17,8 C 78 % 0 % 1006 hPa 0,0 l/m 0,4 km/h (0 Bft) 0 min
17.09.2011 22:41 23,0 C 18,6 C 17,7 C 78 % 0 % 1006 hPa 0,0 l/m 0,4 km/h (0 Bft) 0 min
17.09.2011 22:44 23,0 C 18,6 C 17,5 C 78 % 0 % 1006 hPa 0,0 l/m 8,1 km/h (2 Bft) 0 min
17.09.2011 22:47 23,0 C 18,6 C 17,6 C 78 % 0 % 1006 hPa 0,0 l/m 7,3 km/h (2 Bft) 0 min
17.09.2011 22:50 23,0 C 18,5 C 17,6 C 79 % 0 % 1006 hPa 0,0 l/m 0,2 km/h (0 Bft) 0 min
17.09.2011 22:53 23,0 C 18,5 C 17,7 C 79 % 0 % 1006 hPa 0,0 l/m 0,0 km/h (0 Bft) 0 min
17.09.2011 22:56 23,0 C 18,5 C 17,8 C 79 % 0 % 1006 hPa 0,0 l/m 0,0 km/h (0 Bft) 0 min
17.09.2011 22:59 23,0 C 18,4 C 17,8 C 80 % 0 % 1006 hPa 0,0 l/m 1,8 km/h (1 Bft) 0 min
17.09.2011 23:02 23,0 C 18,4 C 17,7 C 80 % 0 % 1006 hPa 0,0 l/m 0,3 km/h (0 Bft) 0 min
17.09.2011 23:05 23,0 C 18,2 C 17,7 C 82 % 0 % 1006 hPa 0,0 l/m 2,8 km/h (1 Bft) 0 min
17.09.2011 23:08 23,0 C 18,1 C 17,6 C 83 % 0 % 1006 hPa 0,0 l/m 0,6 km/h (0 Bft) 0 min
17.09.2011 23:11 23,0 C 18,0 C 17,6 C 83 % 0 % 1006 hPa 0,3 l/m 2,4 km/h (1 Bft) 0 min
17.09.2011 23:14 23,0 C 18,0 C 17,5 C 83 % 0 % 1006 hPa 0,0 l/m 2,4 km/h (1 Bft) 0 min
17.09.2011 23:17 23,0 C 18,0 C 17,5 C 83 % 0 % 1006 hPa 0,0 l/m 1,5 km/h (1 Bft) 0 min
17.09.2011 23:20 23,0 C 18,0 C 17,4 C 83 % 0 % 1006 hPa 0,3 l/m 0,6 km/h (0 Bft) 0 min
17.09.2011 23:23 23,0 C 17,9 C 17,3 C 83 % 0 % 1006 hPa 0,0 l/m 4,2 km/h (1 Bft) 0 min
17.09.2011 23:26 23,0 C 17,9 C 17,2 C 83 % 0 % 1006 hPa 0,0 l/m 4,3 km/h (1 Bft) 0 min
17.09.2011 23:29 23,0 C 17,9 C 17,3 C 84 % 0 % 1006 hPa 0,3 l/m 1,3 km/h (1 Bft) 0 min
17.09.2011 23:32 23,0 C 17,9 C 17,3 C 84 % 0 % 1006 hPa 0,0 l/m 4,3 km/h (1 Bft) 0 min
17.09.2011 23:35 23,0 C 17,9 C 17,4 C 84 % 0 % 1006 hPa 0,3 l/m 0,4 km/h (0 Bft) 0 min
17.09.2011 23:38 23,0 C 17,9 C 17,4 C 85 % 0 % 1006 hPa 0,0 l/m 0,0 km/h (0 Bft) 0 min
17.09.2011 23:41 23,0 C 17,8 C 17,5 C 86 % 0 % 1006 hPa 0,0 l/m 0,0 km/h (0 Bft) 0 min
17.09.2011 23:44 23,0 C 17,8 C 17,5 C 86 % 0 % 1006 hPa 0,0 l/m 0,0 km/h (0 Bft) 0 min
17.09.2011 23:47 23,0 C 17,7 C 17,4 C 86 % 0 % 1006 hPa 0,0 l/m 0,0 km/h (0 Bft) 0 min
17.09.2011 23:50 23,0 C 17,7 C 17,4 C 87 % 0 % 1006 hPa 0,3 l/m 0,0 km/h (0 Bft) 0 min
17.09.2011 23:52 23,0 C 17,7 C 17,4 C 87 % 0 % 1006 hPa 0,0 l/m 0,9 km/h (0 Bft) 0 min
17.09.2011 23:55 23,0 C 17,7 C 17,3 C 87 % 0 % 1006 hPa 0,0 l/m 0,9 km/h (0 Bft) 0 min
17.09.2011 23:58 23,0 C 17,6 C 17,3 C 88 % 0 % 1006 hPa 0,0 l/m 5,0 km/h (1 Bft) 0 min
_ Min-Zeit 06:35 06:02 06:08 14:56 - 18:50 - 00:01 -
Minimum _ 22,1 C 12,7 C 14,2 C 59 % - 1006 hPa - 0,0 km/h (0 Bft) -
_ Max-Zeit 15:08 14:59 10:02 06:50 13:44 03:08 05:38 18:17 10:35
Maximum _ 23,3 C 23,7 C 23,3 C 96 % 69 % 1012 hPa 0,3 l/m 19,8 km/h
O-SO (3 Bft)
3 min
Durchschnitt _ 22,6 C 17,8 C 18,0 C 80 % #3:51 h 1010 hPa #2,4 l/m 4,8 km/h (1 Bft) #3:51 h